Joselandia, Brazil
Current Conditions -  °F | °C
As of 5:00 PM on Tuesday 21 Oct 2014 (Local Time) from SBTE Reporting Station
Clear Clear  
Wind Chill: 93°   Ceiling: Unl
Heat Index: 101°   Visibility: 6mi
Dew Point: 72°   Wind: 6mph
Humidity: 49%   Direction: 240°WSW
Pressure: 29.77"   Gusts: NA
Location:  4.93°S, 44.68°W
Report Text: SBTE 212000Z 24005KT CAVOK 34/22 Q1008
Loading
Personal Weather Stations






























Interactive Weather Map
Tropical Storm Tracking
New forecast layout! Learn more

10-Day Weather Forecast

Advertisements
Track Severe Weather on mobile